sensor_id;sensor_type;location;lat;lon;timestamp;temperature;humidity
10459;DHT22;5277;48.722;8.736;2023-07-29T00:02:01;17.90;99.90
10459;DHT22;5277;48.722;8.736;2023-07-29T00:04:26;17.90;99.90
10459;DHT22;5277;48.722;8.736;2023-07-29T00:06:52;18.00;99.90
10459;DHT22;5277;48.722;8.736;2023-07-29T00:09:17;17.90;99.90
10459;DHT22;5277;48.722;8.736;2023-07-29T00:11:43;17.90;99.90
10459;DHT22;5277;48.722;8.736;2023-07-29T00:14:08;17.90;99.90
10459;DHT22;5277;48.722;8.736;2023-07-29T00:16:34;17.90;99.90
10459;DHT22;5277;48.722;8.736;2023-07-29T00:18:59;18.00;99.90
10459;DHT22;5277;48.722;8.736;2023-07-29T00:21:25;18.00;99.90
10459;DHT22;5277;48.722;8.736;2023-07-29T00:23:50;18.10;99.90
10459;DHT22;5277;48.722;8.736;2023-07-29T00:26:16;18.00;99.90
10459;DHT22;5277;48.722;8.736;2023-07-29T00:28:42;17.90;99.90
10459;DHT22;5277;48.722;8.736;2023-07-29T00:31:08;17.90;99.90
10459;DHT22;5277;48.722;8.736;2023-07-29T00:33:33;18.00;99.90
10459;DHT22;5277;48.722;8.736;2023-07-29T00:35:59;17.90;99.90
10459;DHT22;5277;48.722;8.736;2023-07-29T00:38:27;17.90;99.90
10459;DHT22;5277;48.722;8.736;2023-07-29T00:40:53;17.90;99.90
10459;DHT22;5277;48.722;8.736;2023-07-29T00:43:18;17.90;99.90
10459;DHT22;5277;48.722;8.736;2023-07-29T00:45:44;17.90;99.90
10459;DHT22;5277;48.722;8.736;2023-07-29T00:48:10;17.90;99.90
10459;DHT22;5277;48.722;8.736;2023-07-29T00:50:35;17.90;99.90
10459;DHT22;5277;48.722;8.736;2023-07-29T00:53:01;17.90;99.90
10459;DHT22;5277;48.722;8.736;2023-07-29T00:55:27;17.80;99.90
10459;DHT22;5277;48.722;8.736;2023-07-29T00:57:54;17.90;99.90
10459;DHT22;5277;48.722;8.736;2023-07-29T01:00:20;17.80;99.90
10459;DHT22;5277;48.722;8.736;2023-07-29T01:02:46;17.90;99.90
10459;DHT22;5277;48.722;8.736;2023-07-29T01:05:14;17.90;99.90
10459;DHT22;5277;48.722;8.736;2023-07-29T01:08:06;17.80;99.90
10459;DHT22;5277;48.722;8.736;2023-07-29T01:10:58;17.80;99.90
10459;DHT22;5277;48.722;8.736;2023-07-29T01:13:49;17.80;99.90
10459;DHT22;5277;48.722;8.736;2023-07-29T01:16:25;17.80;99.90
10459;DHT22;5277;48.722;8.736;2023-07-29T01:18:53;17.80;99.90
10459;DHT22;5277;48.722;8.736;2023-07-29T01:21:21;17.70;99.90
10459;DHT22;5277;48.722;8.736;2023-07-29T01:23:47;17.70;99.90
10459;DHT22;5277;48.722;8.736;2023-07-29T01:26:12;17.70;99.90
10459;DHT22;5277;48.722;8.736;2023-07-29T01:28:38;17.70;99.90
10459;DHT22;5277;48.722;8.736;2023-07-29T01:31:12;17.60;99.90
10459;DHT22;5277;48.722;8.736;2023-07-29T01:33:48;17.60;99.90
10459;DHT22;5277;48.722;8.736;2023-07-29T01:36:23;17.60;99.90
10459;DHT22;5277;48.722;8.736;2023-07-29T01:38:53;17.50;99.90
10459;DHT22;5277;48.722;8.736;2023-07-29T01:41:20;17.50;99.90
10459;DHT22;5277;48.722;8.736;2023-07-29T01:43:47;17.50;99.90
10459;DHT22;5277;48.722;8.736;2023-07-29T01:46:14;17.40;99.90
10459;DHT22;5277;48.722;8.736;2023-07-29T01:48:40;17.40;99.90
10459;DHT22;5277;48.722;8.736;2023-07-29T01:51:06;17.40;99.90
10459;DHT22;5277;48.722;8.736;2023-07-29T01:53:32;17.40;99.90
10459;DHT22;5277;48.722;8.736;2023-07-29T01:55:58;17.40;99.90
10459;DHT22;5277;48.722;8.736;2023-07-29T01:58:24;17.40;99.90
10459;DHT22;5277;48.722;8.736;2023-07-29T02:00:49;17.40;99.90
10459;DHT22;5277;48.722;8.736;2023-07-29T02:03:15;17.40;99.90
10459;DHT22;5277;48.722;8.736;2023-07-29T02:05:41;17.30;99.90
10459;DHT22;5277;48.722;8.736;2023-07-29T02:08:09;17.30;99.90
10459;DHT22;5277;48.722;8.736;2023-07-29T02:10:35;17.40;99.90
10459;DHT22;5277;48.722;8.736;2023-07-29T02:13:01;17.40;99.90
10459;DHT22;5277;48.722;8.736;2023-07-29T02:15:26;17.40;99.90
10459;DHT22;5277;48.722;8.736;2023-07-29T02:17:53;17.40;99.90
10459;DHT22;5277;48.722;8.736;2023-07-29T02:20:18;17.40;99.90
10459;DHT22;5277;48.722;8.736;2023-07-29T02:22:44;17.50;99.90
10459;DHT22;5277;48.722;8.736;2023-07-29T02:25:10;17.50;99.90
10459;DHT22;5277;48.722;8.736;2023-07-29T02:27:35;17.40;99.90
10459;DHT22;5277;48.722;8.736;2023-07-29T02:30:01;17.50;99.90
10459;DHT22;5277;48.722;8.736;2023-07-29T02:32:27;17.40;99.90
10459;DHT22;5277;48.722;8.736;2023-07-29T02:34:53;17.40;99.90
10459;DHT22;5277;48.722;8.736;2023-07-29T02:37:18;17.40;99.90
10459;DHT22;5277;48.722;8.736;2023-07-29T02:39:44;17.30;99.90
10459;DHT22;5277;48.722;8.736;2023-07-29T02:42:10;17.30;99.90
10459;DHT22;5277;48.722;8.736;2023-07-29T02:44:36;17.30;99.90
10459;DHT22;5277;48.722;8.736;2023-07-29T02:47:01;17.40;99.90
10459;DHT22;5277;48.722;8.736;2023-07-29T02:49:27;17.30;99.90
10459;DHT22;5277;48.722;8.736;2023-07-29T02:51:53;17.40;99.90
10459;DHT22;5277;48.722;8.736;2023-07-29T02:54:18;17.40;99.90
10459;DHT22;5277;48.722;8.736;2023-07-29T02:56:44;17.40;99.90
10459;DHT22;5277;48.722;8.736;2023-07-29T02:59:09;17.50;99.90
10459;DHT22;5277;48.722;8.736;2023-07-29T03:01:36;17.40;99.90
10459;DHT22;5277;48.722;8.736;2023-07-29T03:04:01;17.40;99.90
10459;DHT22;5277;48.722;8.736;2023-07-29T03:06:27;17.40;99.90
10459;DHT22;5277;48.722;8.736;2023-07-29T03:08:53;17.40;99.90
10459;DHT22;5277;48.722;8.736;2023-07-29T03:11:18;17.40;99.90
10459;DHT22;5277;48.722;8.736;2023-07-29T03:13:44;17.40;99.90
10459;DHT22;5277;48.722;8.736;2023-07-29T03:16:14;17.40;99.90
10459;DHT22;5277;48.722;8.736;2023-07-29T03:18:42;17.50;99.90
10459;DHT22;5277;48.722;8.736;2023-07-29T03:21:08;17.40;99.90
10459;DHT22;5277;48.722;8.736;2023-07-29T03:23:34;17.50;99.90
10459;DHT22;5277;48.722;8.736;2023-07-29T03:26:01;17.50;99.90
10459;DHT22;5277;48.722;8.736;2023-07-29T03:28:31;17.50;99.90
10459;DHT22;5277;48.722;8.736;2023-07-29T03:30:57;17.40;99.90
10459;DHT22;5277;48.722;8.736;2023-07-29T03:33:24;17.40;99.90
10459;DHT22;5277;48.722;8.736;2023-07-29T03:35:49;17.40;99.90
10459;DHT22;5277;48.722;8.736;2023-07-29T03:38:15;17.50;99.90
10459;DHT22;5277;48.722;8.736;2023-07-29T03:40:41;17.50;99.90
10459;DHT22;5277;48.722;8.736;2023-07-29T03:43:07;17.50;99.90
10459;DHT22;5277;48.722;8.736;2023-07-29T03:45:34;17.60;99.90
10459;DHT22;5277;48.722;8.736;2023-07-29T03:48:00;17.70;99.90
10459;DHT22;5277;48.722;8.736;2023-07-29T03:50:26;17.60;99.90
10459;DHT22;5277;48.722;8.736;2023-07-29T03:52:51;17.60;99.90
10459;DHT22;5277;48.722;8.736;2023-07-29T03:55:17;17.60;99.90
10459;DHT22;5277;48.722;8.736;2023-07-29T03:57:43;17.60;99.90
10459;DHT22;5277;48.722;8.736;2023-07-29T04:00:08;17.50;99.90
10459;DHT22;5277;48.722;8.736;2023-07-29T04:02:34;17.50;99.90
10459;DHT22;5277;48.722;8.736;2023-07-29T04:05:03;17.60;99.90
10459;DHT22;5277;48.722;8.736;2023-07-29T04:07:29;17.60;99.90
10459;DHT22;5277;48.722;8.736;2023-07-29T04:09:55;17.60;99.90
10459;DHT22;5277;48.722;8.736;2023-07-29T04:12:20;17.60;99.90
10459;DHT22;5277;48.722;8.736;2023-07-29T04:14:47;17.60;99.90
10459;DHT22;5277;48.722;8.736;2023-07-29T04:17:12;17.60;99.90
10459;DHT22;5277;48.722;8.736;2023-07-29T04:19:38;17.60;99.90
10459;DHT22;5277;48.722;8.736;2023-07-29T04:22:04;17.60;99.90
10459;DHT22;5277;48.722;8.736;2023-07-29T04:24:29;17.60;99.90
10459;DHT22;5277;48.722;8.736;2023-07-29T04:26:55;17.60;99.90
10459;DHT22;5277;48.722;8.736;2023-07-29T04:29:20;17.60;99.90
10459;DHT22;5277;48.722;8.736;2023-07-29T04:31:48;17.70;99.90
10459;DHT22;5277;48.722;8.736;2023-07-29T04:34:14;17.70;99.90
10459;DHT22;5277;48.722;8.736;2023-07-29T04:36:39;17.70;99.90
10459;DHT22;5277;48.722;8.736;2023-07-29T04:39:05;17.70;99.90
10459;DHT22;5277;48.722;8.736;2023-07-29T04:41:30;17.70;99.90
10459;DHT22;5277;48.722;8.736;2023-07-29T04:43:56;17.70;99.90
10459;DHT22;5277;48.722;8.736;2023-07-29T04:46:22;17.70;99.90
10459;DHT22;5277;48.722;8.736;2023-07-29T04:48:47;17.60;99.90
10459;DHT22;5277;48.722;8.736;2023-07-29T04:51:13;17.60;99.90
10459;DHT22;5277;48.722;8.736;2023-07-29T04:53:38;17.60;99.90
10459;DHT22;5277;48.722;8.736;2023-07-29T04:56:04;17.60;99.90
10459;DHT22;5277;48.722;8.736;2023-07-29T04:58:30;17.60;99.90
10459;DHT22;5277;48.722;8.736;2023-07-29T05:00:56;17.70;99.90
10459;DHT22;5277;48.722;8.736;2023-07-29T05:03:21;17.60;99.90
10459;DHT22;5277;48.722;8.736;2023-07-29T05:05:47;17.70;99.90
10459;DHT22;5277;48.722;8.736;2023-07-29T05:08:14;17.70;99.90
10459;DHT22;5277;48.722;8.736;2023-07-29T05:10:39;17.80;99.90
10459;DHT22;5277;48.722;8.736;2023-07-29T05:13:05;17.80;99.90
10459;DHT22;5277;48.722;8.736;2023-07-29T05:15:30;17.80;99.90
10459;DHT22;5277;48.722;8.736;2023-07-29T05:17:56;17.90;99.90
10459;DHT22;5277;48.722;8.736;2023-07-29T05:20:21;17.80;99.90
10459;DHT22;5277;48.722;8.736;2023-07-29T05:22:47;17.90;99.90
10459;DHT22;5277;48.722;8.736;2023-07-29T05:25:13;18.00;99.90
10459;DHT22;5277;48.722;8.736;2023-07-29T05:27:38;17.90;99.90
10459;DHT22;5277;48.722;8.736;2023-07-29T05:30:04;18.00;99.90
10459;DHT22;5277;48.722;8.736;2023-07-29T05:32:30;18.00;99.90
10459;DHT22;5277;48.722;8.736;2023-07-29T05:34:56;18.00;99.90
10459;DHT22;5277;48.722;8.736;2023-07-29T05:37:21;18.10;99.90
10459;DHT22;5277;48.722;8.736;2023-07-29T05:39:47;18.10;99.90
10459;DHT22;5277;48.722;8.736;2023-07-29T05:42:12;18.20;99.90
10459;DHT22;5277;48.722;8.736;2023-07-29T05:44:38;18.20;99.90
10459;DHT22;5277;48.722;8.736;2023-07-29T05:47:03;18.20;99.90
10459;DHT22;5277;48.722;8.736;2023-07-29T05:49:29;18.30;99.90
10459;DHT22;5277;48.722;8.736;2023-07-29T05:51:55;18.30;99.90
10459;DHT22;5277;48.722;8.736;2023-07-29T05:54:20;18.40;99.90
10459;DHT22;5277;48.722;8.736;2023-07-29T05:56:46;18.40;99.90
10459;DHT22;5277;48.722;8.736;2023-07-29T05:59:11;18.50;99.90
10459;DHT22;5277;48.722;8.736;2023-07-29T06:01:37;18.50;99.90
10459;DHT22;5277;48.722;8.736;2023-07-29T06:04:03;18.60;99.90
10459;DHT22;5277;48.722;8.736;2023-07-29T06:06:29;18.60;99.90
10459;DHT22;5277;48.722;8.736;2023-07-29T06:08:54;18.70;99.90
10459;DHT22;5277;48.722;8.736;2023-07-29T06:11:20;18.70;99.90
10459;DHT22;5277;48.722;8.736;2023-07-29T06:13:47;18.80;99.90
10459;DHT22;5277;48.722;8.736;2023-07-29T06:16:13;18.90;99.90
10459;DHT22;5277;48.722;8.736;2023-07-29T06:18:39;18.90;99.90
10459;DHT22;5277;48.722;8.736;2023-07-29T06:21:04;18.90;99.90
10459;DHT22;5277;48.722;8.736;2023-07-29T06:23:33;19.00;99.90
10459;DHT22;5277;48.722;8.736;2023-07-29T06:25:59;19.00;99.90
10459;DHT22;5277;48.722;8.736;2023-07-29T06:28:26;19.00;99.90
10459;DHT22;5277;48.722;8.736;2023-07-29T06:30:52;19.00;99.90
10459;DHT22;5277;48.722;8.736;2023-07-29T06:33:17;19.00;99.90
10459;DHT22;5277;48.722;8.736;2023-07-29T06:35:43;19.00;99.90
10459;DHT22;5277;48.722;8.736;2023-07-29T06:38:08;19.00;99.90
10459;DHT22;5277;48.722;8.736;2023-07-29T06:40:34;19.10;99.90
10459;DHT22;5277;48.722;8.736;2023-07-29T06:43:00;19.00;99.90
10459;DHT22;5277;48.722;8.736;2023-07-29T06:45:26;19.00;99.90
10459;DHT22;5277;48.722;8.736;2023-07-29T06:47:52;19.00;99.90
10459;DHT22;5277;48.722;8.736;2023-07-29T06:50:17;19.00;99.90
10459;DHT22;5277;48.722;8.736;2023-07-29T06:52:43;19.00;99.90
10459;DHT22;5277;48.722;8.736;2023-07-29T06:55:09;19.10;99.90
10459;DHT22;5277;48.722;8.736;2023-07-29T06:57:34;19.10;99.90
10459;DHT22;5277;48.722;8.736;2023-07-29T07:00:00;19.10;99.90
10459;DHT22;5277;48.722;8.736;2023-07-29T07:02:25;19.10;99.90
10459;DHT22;5277;48.722;8.736;2023-07-29T07:04:51;19.20;99.90
10459;DHT22;5277;48.722;8.736;2023-07-29T07:07:16;19.10;99.90
10459;DHT22;5277;48.722;8.736;2023-07-29T07:09:42;19.20;99.90
10459;DHT22;5277;48.722;8.736;2023-07-29T07:12:08;19.10;99.90
10459;DHT22;5277;48.722;8.736;2023-07-29T07:14:33;19.20;99.90
10459;DHT22;5277;48.722;8.736;2023-07-29T07:16:59;19.20;99.90
10459;DHT22;5277;48.722;8.736;2023-07-29T07:19:24;19.20;99.90
10459;DHT22;5277;48.722;8.736;2023-07-29T07:21:50;19.30;99.90
10459;DHT22;5277;48.722;8.736;2023-07-29T07:24:16;19.40;99.90
10459;DHT22;5277;48.722;8.736;2023-07-29T07:26:41;19.40;99.90
10459;DHT22;5277;48.722;8.736;2023-07-29T07:29:07;19.50;99.90
10459;DHT22;5277;48.722;8.736;2023-07-29T07:31:33;19.60;99.90
10459;DHT22;5277;48.722;8.736;2023-07-29T07:33:59;19.70;99.90
10459;DHT22;5277;48.722;8.736;2023-07-29T07:36:26;19.80;99.90
10459;DHT22;5277;48.722;8.736;2023-07-29T07:38:51;19.80;99.90
10459;DHT22;5277;48.722;8.736;2023-07-29T07:41:17;20.00;99.90
10459;DHT22;5277;48.722;8.736;2023-07-29T07:43:42;20.10;99.90
10459;DHT22;5277;48.722;8.736;2023-07-29T07:46:08;20.30;99.90
10459;DHT22;5277;48.722;8.736;2023-07-29T07:48:33;20.50;99.90
10459;DHT22;5277;48.722;8.736;2023-07-29T07:50:59;20.50;99.90
10459;DHT22;5277;48.722;8.736;2023-07-29T07:53:25;20.60;99.90
10459;DHT22;5277;48.722;8.736;2023-07-29T07:55:51;20.60;99.90
10459;DHT22;5277;48.722;8.736;2023-07-29T07:58:17;20.70;99.90
10459;DHT22;5277;48.722;8.736;2023-07-29T08:00:42;20.70;99.90
10459;DHT22;5277;48.722;8.736;2023-07-29T08:03:08;20.80;99.90
10459;DHT22;5277;48.722;8.736;2023-07-29T08:05:34;20.80;99.90
10459;DHT22;5277;48.722;8.736;2023-07-29T08:07:59;20.90;99.90
10459;DHT22;5277;48.722;8.736;2023-07-29T08:10:25;20.90;99.90
10459;DHT22;5277;48.722;8.736;2023-07-29T08:12:51;20.80;99.90
10459;DHT22;5277;48.722;8.736;2023-07-29T08:15:16;20.90;99.90
10459;DHT22;5277;48.722;8.736;2023-07-29T08:17:42;20.90;99.90
10459;DHT22;5277;48.722;8.736;2023-07-29T08:20:08;20.90;99.90
10459;DHT22;5277;48.722;8.736;2023-07-29T08:22:34;21.00;99.90
10459;DHT22;5277;48.722;8.736;2023-07-29T08:25:00;21.00;99.90
10459;DHT22;5277;48.722;8.736;2023-07-29T08:27:25;21.10;99.90
10459;DHT22;5277;48.722;8.736;2023-07-29T08:29:51;21.20;99.90
10459;DHT22;5277;48.722;8.736;2023-07-29T08:32:18;21.20;99.90
10459;DHT22;5277;48.722;8.736;2023-07-29T08:34:44;21.30;99.90
10459;DHT22;5277;48.722;8.736;2023-07-29T08:37:09;21.40;99.90
10459;DHT22;5277;48.722;8.736;2023-07-29T08:39:35;21.40;99.90
10459;DHT22;5277;48.722;8.736;2023-07-29T08:42:04;21.40;99.90
10459;DHT22;5277;48.722;8.736;2023-07-29T08:44:42;21.40;99.90
10459;DHT22;5277;48.722;8.736;2023-07-29T08:47:08;21.50;99.90
10459;DHT22;5277;48.722;8.736;2023-07-29T08:49:34;21.60;99.90
10459;DHT22;5277;48.722;8.736;2023-07-29T08:52:01;21.70;99.90
10459;DHT22;5277;48.722;8.736;2023-07-29T08:54:27;21.80;99.90
10459;DHT22;5277;48.722;8.736;2023-07-29T08:56:52;22.00;99.90
10459;DHT22;5277;48.722;8.736;2023-07-29T08:59:19;22.20;99.90
10459;DHT22;5277;48.722;8.736;2023-07-29T09:01:44;22.30;99.90
10459;DHT22;5277;48.722;8.736;2023-07-29T09:04:10;22.30;99.90
10459;DHT22;5277;48.722;8.736;2023-07-29T09:06:36;22.40;99.90
10459;DHT22;5277;48.722;8.736;2023-07-29T09:09:07;22.30;99.90
10459;DHT22;5277;48.722;8.736;2023-07-29T09:11:33;22.30;99.90
10459;DHT22;5277;48.722;8.736;2023-07-29T09:13:59;22.40;99.90
10459;DHT22;5277;48.722;8.736;2023-07-29T09:16:24;22.40;99.90
10459;DHT22;5277;48.722;8.736;2023-07-29T09:18:51;22.30;99.90
10459;DHT22;5277;48.722;8.736;2023-07-29T09:21:18;22.40;99.90
10459;DHT22;5277;48.722;8.736;2023-07-29T09:23:48;22.40;99.90
10459;DHT22;5277;48.722;8.736;2023-07-29T09:26:22;22.40;99.90
10459;DHT22;5277;48.722;8.736;2023-07-29T09:28:52;22.50;99.90
10459;DHT22;5277;48.722;8.736;2023-07-29T09:31:28;22.40;99.90
10459;DHT22;5277;48.722;8.736;2023-07-29T09:34:02;22.40;99.90
10459;DHT22;5277;48.722;8.736;2023-07-29T09:36:30;22.30;99.90
10459;DHT22;5277;48.722;8.736;2023-07-29T09:38:57;22.40;99.90
10459;DHT22;5277;48.722;8.736;2023-07-29T09:41:27;22.40;99.90
10459;DHT22;5277;48.722;8.736;2023-07-29T09:43:57;22.60;99.90
10459;DHT22;5277;48.722;8.736;2023-07-29T09:46:25;22.80;99.90
10459;DHT22;5277;48.722;8.736;2023-07-29T09:48:57;23.00;99.90
10459;DHT22;5277;48.722;8.736;2023-07-29T09:51:23;23.10;99.90
10459;DHT22;5277;48.722;8.736;2023-07-29T09:53:50;23.20;99.90
10459;DHT22;5277;48.722;8.736;2023-07-29T09:56:16;23.20;99.90
10459;DHT22;5277;48.722;8.736;2023-07-29T09:58:45;23.10;99.90
10459;DHT22;5277;48.722;8.736;2023-07-29T10:01:12;23.00;99.90
10459;DHT22;5277;48.722;8.736;2023-07-29T10:03:37;22.80;99.90
10459;DHT22;5277;48.722;8.736;2023-07-29T10:06:05;22.80;99.90
10459;DHT22;5277;48.722;8.736;2023-07-29T10:08:31;22.80;99.90
10459;DHT22;5277;48.722;8.736;2023-07-29T10:11:10;22.90;99.90
10459;DHT22;5277;48.722;8.736;2023-07-29T10:13:36;22.80;99.90
10459;DHT22;5277;48.722;8.736;2023-07-29T10:16:03;22.80;99.90
10459;DHT22;5277;48.722;8.736;2023-07-29T10:18:30;22.70;99.90
10459;DHT22;5277;48.722;8.736;2023-07-29T10:20:57;22.70;99.90
10459;DHT22;5277;48.722;8.736;2023-07-29T10:23:25;22.80;99.90
10459;DHT22;5277;48.722;8.736;2023-07-29T10:28:25;23.10;99.90
10459;DHT22;5277;48.722;8.736;2023-07-29T10:30:52;23.10;99.90
10459;DHT22;5277;48.722;8.736;2023-07-29T10:33:17;23.20;99.90
10459;DHT22;5277;48.722;8.736;2023-07-29T10:35:43;23.30;99.90
10459;DHT22;5277;48.722;8.736;2023-07-29T10:38:09;23.60;99.90
10459;DHT22;5277;48.722;8.736;2023-07-29T10:40:46;23.90;99.90
10459;DHT22;5277;48.722;8.736;2023-07-29T10:43:15;24.10;99.90
10459;DHT22;5277;48.722;8.736;2023-07-29T10:45:43;24.30;99.90
10459;DHT22;5277;48.722;8.736;2023-07-29T10:48:13;24.40;99.90
10459;DHT22;5277;48.722;8.736;2023-07-29T10:51:24;24.40;99.90
10459;DHT22;5277;48.722;8.736;2023-07-29T10:54:14;24.60;99.90
10459;DHT22;5277;48.722;8.736;2023-07-29T10:56:41;24.80;99.90
10459;DHT22;5277;48.722;8.736;2023-07-29T11:01:43;25.20;99.90
10459;DHT22;5277;48.722;8.736;2023-07-29T11:09:45;25.30;99.90
10459;DHT22;5277;48.722;8.736;2023-07-29T11:17:36;25.80;99.90
10459;DHT22;5277;48.722;8.736;2023-07-29T11:20:03;25.90;99.90
10459;DHT22;5277;48.722;8.736;2023-07-29T11:22:29;26.10;99.90
10459;DHT22;5277;48.722;8.736;2023-07-29T11:24:55;26.20;99.90
10459;DHT22;5277;48.722;8.736;2023-07-29T11:27:21;26.60;99.90
10459;DHT22;5277;48.722;8.736;2023-07-29T11:29:47;27.40;99.50
10459;DHT22;5277;48.722;8.736;2023-07-29T11:32:13;27.90;98.10
10459;DHT22;5277;48.722;8.736;2023-07-29T11:34:39;28.30;97.40
10459;DHT22;5277;48.722;8.736;2023-07-29T11:37:10;28.60;96.90
10459;DHT22;5277;48.722;8.736;2023-07-29T11:39:43;29.20;95.80
10459;DHT22;5277;48.722;8.736;2023-07-29T11:42:13;29.60;94.30
10459;DHT22;5277;48.722;8.736;2023-07-29T11:44:39;30.00;93.00
10459;DHT22;5277;48.722;8.736;2023-07-29T11:47:12;30.40;92.40
10459;DHT22;5277;48.722;8.736;2023-07-29T11:49:41;30.90;92.10
10459;DHT22;5277;48.722;8.736;2023-07-29T11:52:08;31.20;91.20
10459;DHT22;5277;48.722;8.736;2023-07-29T11:54:37;31.80;85.60
10459;DHT22;5277;48.722;8.736;2023-07-29T11:57:06;32.30;89.00
10459;DHT22;5277;48.722;8.736;2023-07-29T11:59:34;32.80;80.20
10459;DHT22;5277;48.722;8.736;2023-07-29T12:02:26;33.10;81.10
10459;DHT22;5277;48.722;8.736;2023-07-29T12:04:52;33.20;75.70
10459;DHT22;5277;48.722;8.736;2023-07-29T12:07:19;33.30;76.30
10459;DHT22;5277;48.722;8.736;2023-07-29T12:09:46;32.90;74.90
10459;DHT22;5277;48.722;8.736;2023-07-29T12:12:12;33.10;74.20
10459;DHT22;5277;48.722;8.736;2023-07-29T12:14:37;33.00;66.30
10459;DHT22;5277;48.722;8.736;2023-07-29T12:17:05;33.10;68.40
10459;DHT22;5277;48.722;8.736;2023-07-29T12:20:00;32.90;71.10
10459;DHT22;5277;48.722;8.736;2023-07-29T12:22:35;32.60;66.10
10459;DHT22;5277;48.722;8.736;2023-07-29T12:25:12;32.40;69.10
10459;DHT22;5277;48.722;8.736;2023-07-29T12:28:29;32.50;68.40
10459;DHT22;5277;48.722;8.736;2023-07-29T12:33:55;32.50;68.10
10459;DHT22;5277;48.722;8.736;2023-07-29T12:36:53;33.00;71.70
10459;DHT22;5277;48.722;8.736;2023-07-29T12:39:40;32.70;67.10
10459;DHT22;5277;48.722;8.736;2023-07-29T12:42:16;32.90;67.40
10459;DHT22;5277;48.722;8.736;2023-07-29T12:44:48;33.50;68.20
10459;DHT22;5277;48.722;8.736;2023-07-29T12:47:44;33.80;66.90
10459;DHT22;5277;48.722;8.736;2023-07-29T12:50:30;34.00;62.80
10459;DHT22;5277;48.722;8.736;2023-07-29T12:53:33;34.00;61.90
10459;DHT22;5277;48.722;8.736;2023-07-29T12:56:21;33.50;59.90
10459;DHT22;5277;48.722;8.736;2023-07-29T12:59:04;33.30;60.10
10459;DHT22;5277;48.722;8.736;2023-07-29T13:01:38;33.00;61.50
10459;DHT22;5277;48.722;8.736;2023-07-29T13:04:06;32.30;65.40
10459;DHT22;5277;48.722;8.736;2023-07-29T13:06:41;31.80;63.60
10459;DHT22;5277;48.722;8.736;2023-07-29T13:09:26;31.30;65.90
10459;DHT22;5277;48.722;8.736;2023-07-29T13:12:12;30.50;73.00
10459;DHT22;5277;48.722;8.736;2023-07-29T13:15:01;29.60;70.40
10459;DHT22;5277;48.722;8.736;2023-07-29T13:23:44;28.00;81.00
10459;DHT22;5277;48.722;8.736;2023-07-29T13:26:29;27.70;83.60
10459;DHT22;5277;48.722;8.736;2023-07-29T13:29:14;27.20;83.40
10459;DHT22;5277;48.722;8.736;2023-07-29T13:31:42;27.10;88.70
10459;DHT22;5277;48.722;8.736;2023-07-29T13:34:22;26.70;86.50
10459;DHT22;5277;48.722;8.736;2023-07-29T13:37:00;26.30;86.80
10459;DHT22;5277;48.722;8.736;2023-07-29T13:39:28;26.10;84.20
10459;DHT22;5277;48.722;8.736;2023-07-29T13:44:42;25.90;88.20
10459;DHT22;5277;48.722;8.736;2023-07-29T13:50:10;26.10;90.60
10459;DHT22;5277;48.722;8.736;2023-07-29T13:52:40;26.20;90.90
10459;DHT22;5277;48.722;8.736;2023-07-29T13:55:22;26.20;90.80
10459;DHT22;5277;48.722;8.736;2023-07-29T13:58:03;26.30;90.40
10459;DHT22;5277;48.722;8.736;2023-07-29T14:00:38;26.30;90.80
10459;DHT22;5277;48.722;8.736;2023-07-29T14:03:21;26.40;92.20
10459;DHT22;5277;48.722;8.736;2023-07-29T14:09:15;26.20;94.20
10459;DHT22;5277;48.722;8.736;2023-07-29T14:11:53;25.90;92.40
10459;DHT22;5277;48.722;8.736;2023-07-29T14:14:42;25.70;93.40
10459;DHT22;5277;48.722;8.736;2023-07-29T14:17:16;25.80;93.90
10459;DHT22;5277;48.722;8.736;2023-07-29T14:19:45;25.80;91.80
10459;DHT22;5277;48.722;8.736;2023-07-29T14:35:08;25.30;96.40
10459;DHT22;5277;48.722;8.736;2023-07-29T14:47:43;25.70;94.70
10459;DHT22;5277;48.722;8.736;2023-07-29T14:50:31;25.90;95.30
10459;DHT22;5277;48.722;8.736;2023-07-29T14:53:25;25.90;95.60
10459;DHT22;5277;48.722;8.736;2023-07-29T14:55:53;25.80;96.60
10459;DHT22;5277;48.722;8.736;2023-07-29T14:58:28;25.80;96.00
10459;DHT22;5277;48.722;8.736;2023-07-29T15:00:59;25.80;96.70
10459;DHT22;5277;48.722;8.736;2023-07-29T15:03:50;25.80;95.30
10459;DHT22;5277;48.722;8.736;2023-07-29T15:06:25;25.90;94.70
10459;DHT22;5277;48.722;8.736;2023-07-29T15:09:23;25.90;97.00
10459;DHT22;5277;48.722;8.736;2023-07-29T15:12:20;25.80;92.70
10459;DHT22;5277;48.722;8.736;2023-07-29T15:14:57;25.60;96.40
10459;DHT22;5277;48.722;8.736;2023-07-29T15:17:31;25.50;97.00
10459;DHT22;5277;48.722;8.736;2023-07-29T15:20:02;25.50;95.70
10459;DHT22;5277;48.722;8.736;2023-07-29T15:22:43;25.40;93.30
10459;DHT22;5277;48.722;8.736;2023-07-29T15:28:54;25.40;90.90
10459;DHT22;5277;48.722;8.736;2023-07-29T15:31:35;25.30;92.80
10459;DHT22;5277;48.722;8.736;2023-07-29T15:34:21;25.20;92.10
10459;DHT22;5277;48.722;8.736;2023-07-29T15:36:56;25.20;91.50
10459;DHT22;5277;48.722;8.736;2023-07-29T15:39:55;25.10;92.10
10459;DHT22;5277;48.722;8.736;2023-07-29T15:42:41;25.20;92.10
10459;DHT22;5277;48.722;8.736;2023-07-29T15:45:15;25.20;92.80
10459;DHT22;5277;48.722;8.736;2023-07-29T15:48:08;25.10;93.40
10459;DHT22;5277;48.722;8.736;2023-07-29T15:51:04;25.00;92.60
10459;DHT22;5277;48.722;8.736;2023-07-29T15:53:49;24.90;93.60
10459;DHT22;5277;48.722;8.736;2023-07-29T15:56:33;24.80;93.60
10459;DHT22;5277;48.722;8.736;2023-07-29T15:59:11;24.70;92.80
10459;DHT22;5277;48.722;8.736;2023-07-29T16:01:47;24.60;93.00
10459;DHT22;5277;48.722;8.736;2023-07-29T16:04:21;24.40;92.90
10459;DHT22;5277;48.722;8.736;2023-07-29T16:07:07;24.40;92.80
10459;DHT22;5277;48.722;8.736;2023-07-29T16:09:51;24.30;95.40
10459;DHT22;5277;48.722;8.736;2023-07-29T16:12:21;24.30;93.70
10459;DHT22;5277;48.722;8.736;2023-07-29T16:15:09;24.20;95.70
10459;DHT22;5277;48.722;8.736;2023-07-29T16:17:41;24.00;96.40
10459;DHT22;5277;48.722;8.736;2023-07-29T16:20:40;24.00;95.30
10459;DHT22;5277;48.722;8.736;2023-07-29T16:23:20;24.00;95.30
10459;DHT22;5277;48.722;8.736;2023-07-29T16:26:06;23.90;95.80
10459;DHT22;5277;48.722;8.736;2023-07-29T16:28:48;23.90;96.30
10459;DHT22;5277;48.722;8.736;2023-07-29T16:31:22;23.80;97.00
10459;DHT22;5277;48.722;8.736;2023-07-29T16:34:13;23.70;97.60
10459;DHT22;5277;48.722;8.736;2023-07-29T16:36:50;23.70;98.90
10459;DHT22;5277;48.722;8.736;2023-07-29T16:39:17;23.60;97.60
10459;DHT22;5277;48.722;8.736;2023-07-29T16:41:48;23.60;96.50
10459;DHT22;5277;48.722;8.736;2023-07-29T16:44:32;23.70;96.00
10459;DHT22;5277;48.722;8.736;2023-07-29T16:47:12;23.70;98.30
10459;DHT22;5277;48.722;8.736;2023-07-29T16:49:48;23.60;98.50
10459;DHT22;5277;48.722;8.736;2023-07-29T16:52:21;23.70;98.30
10459;DHT22;5277;48.722;8.736;2023-07-29T16:54:59;23.60;98.50
10459;DHT22;5277;48.722;8.736;2023-07-29T16:57:33;23.60;98.70
10459;DHT22;5277;48.722;8.736;2023-07-29T17:00:05;23.50;98.30
10459;DHT22;5277;48.722;8.736;2023-07-29T17:02:41;23.40;99.00
10459;DHT22;5277;48.722;8.736;2023-07-29T17:05:17;23.50;99.20